Time;durP1;ratioP1;P1;durP2;ratioP2;P2;SDS_P1;SDS_P2;PMS_P1;PMS_P2;Temp;Humidity;BMP_temperature;BMP_pressure;BME280_temperature;BME280_humidity;BME280_pressure;Samples;Min_cycle;Max_cycle;Signal;HPM_P1;HPM_P2
2023/11/24 00:01:39;;;;;;;3.23;2.20;;;;;;;21.32;55.17;97044.06;4986753;28;20237;-27
2023/11/24 00:04:06;;;;;;;2.83;2.00;;;;;;;21.32;55.31;97036.41;4985165;28;20642;-26
2023/11/24 00:06:33;;;;;;;4.70;2.20;;;;;;;21.32;55.16;97036.41;4986594;28;20214;-29
2023/11/24 00:08:59;;;;;;;3.90;2.10;;;;;;;21.32;55.28;97033.84;4990019;28;20210;-26
2023/11/24 00:11:28;;;;;;;3.80;2.30;;;;;;;21.32;55.35;97023.63;4983797;28;20202;-26
2023/11/24 00:13:55;;;;;;;3.10;2.20;;;;;;;21.33;55.35;97007.44;4980834;28;20215;-28
2023/11/24 00:16:22;;;;;;;2.33;2.13;;;;;;;21.32;55.32;96985.28;4981803;28;20226;-26
2023/11/24 00:18:49;;;;;;;3.27;2.13;;;;;;;21.32;55.36;96982.72;4992490;28;20201;-28
2023/11/24 00:21:16;;;;;;;3.53;2.27;;;;;;;21.32;55.33;96975.06;4986240;28;20202;-26
2023/11/24 00:23:42;;;;;;;3.83;2.20;;;;;;;21.33;55.09;96974.22;4984000;28;20294;-26
2023/11/24 00:26:09;;;;;;;2.87;2.40;;;;;;;21.32;55.40;96960.56;4987954;28;20254;-26
2023/11/24 00:28:36;;;;;;;2.40;2.20;;;;;;;21.32;55.18;96965.69;4989139;28;20199;-26
2023/11/24 00:31:05;;;;;;;2.73;2.10;;;;;;;21.33;55.08;96979.34;4984792;28;20263;-26
2023/11/24 00:33:32;;;;;;;2.70;1.90;;;;;;;21.33;55.19;96979.34;4991593;28;20218;-27
2023/11/24 00:36:00;;;;;;;2.37;1.80;;;;;;;21.33;55.29;96976.78;4978009;28;20214;-26
2023/11/24 00:38:27;;;;;;;3.13;2.20;;;;;;;21.31;55.27;96966.53;4986320;28;20238;-28
2023/11/24 00:40:54;;;;;;;3.03;2.30;;;;;;;21.32;55.24;96977.63;4988852;28;20211;-28
2023/11/24 00:43:22;;;;;;;3.03;2.10;;;;;;;21.31;55.15;96975.88;4984503;28;20230;-26
2023/11/24 00:45:49;;;;;;;3.27;2.33;;;;;;;21.30;55.46;96969.06;4986841;28;20289;-27
2023/11/24 00:48:16;;;;;;;2.80;2.20;;;;;;;21.30;55.47;96962.25;4983594;28;20727;-26
2023/11/24 00:50:42;;;;;;;3.57;2.17;;;;;;;21.31;55.28;96968.22;4992485;28;20230;-27
2023/11/24 00:53:09;;;;;;;2.37;2.17;;;;;;;21.29;55.35;96950.28;4986811;28;20690;-26
2023/11/24 00:55:36;;;;;;;2.93;2.20;;;;;;;21.29;55.52;96952.00;4984545;28;20478;-28
2023/11/24 00:58:03;;;;;;;2.50;1.87;;;;;;;21.32;55.41;96941.84;4980592;28;20213;-30
2023/11/24 01:00:29;;;;;;;2.67;1.90;;;;;;;21.30;55.43;96936.69;4984746;28;20440;-27
2023/11/24 01:02:57;;;;;;;3.00;2.27;;;;;;;21.31;55.41;96928.19;4989333;28;20226;-27
2023/11/24 01:05:24;;;;;;;3.53;2.33;;;;;;;21.32;55.37;96929.06;4980616;28;20229;-26
2023/11/24 01:07:51;;;;;;;2.83;2.20;;;;;;;21.32;55.19;96921.38;4990445;28;20678;-26
2023/11/24 01:10:17;;;;;;;2.33;1.90;;;;;;;21.31;55.43;96920.53;4989051;28;20234;-29
2023/11/24 01:12:44;;;;;;;2.13;1.80;;;;;;;21.32;55.34;96913.72;4981947;28;20231;-29
2023/11/24 01:15:11;;;;;;;2.47;1.90;;;;;;;21.32;55.24;96911.16;4988178;28;20230;-26
2023/11/24 01:17:37;;;;;;;2.57;2.00;;;;;;;21.32;55.41;96917.13;4992284;28;20229;-28
2023/11/24 01:20:08;;;;;;;2.27;2.07;;;;;;;21.33;55.41;96910.31;4989456;28;20203;-27
2023/11/24 01:22:35;;;;;;;2.70;1.90;;;;;;;21.33;55.44;96898.41;4991713;28;20212;-26
2023/11/24 01:25:02;;;;;;;4.30;2.10;;;;;;;21.33;55.39;96892.44;4995598;28;20250;-28
2023/11/24 01:27:29;;;;;;;3.27;2.23;;;;;;;21.34;55.46;96895.03;4991555;28;20200;-26
2023/11/24 01:29:55;;;;;;;2.27;2.00;;;;;;;21.34;55.39;96899.25;4992144;28;20210;-26
2023/11/24 01:32:23;;;;;;;2.00;1.80;;;;;;;21.33;55.17;96900.09;4994468;28;20196;-26
2023/11/24 01:34:49;;;;;;;2.67;2.07;;;;;;;21.34;55.31;96912.03;4992205;28;20227;-27
2023/11/24 01:37:16;;;;;;;3.17;1.70;;;;;;;21.34;55.10;96902.69;4996002;28;20254;-27
2023/11/24 01:39:43;;;;;;;1.73;1.63;;;;;;;21.33;55.22;96903.53;4985114;28;20211;-28
2023/11/24 01:42:09;;;;;;;2.30;1.87;;;;;;;21.33;55.29;96910.31;4991588;28;20199;-29
2023/11/24 01:44:36;;;;;;;1.97;1.70;;;;;;;21.33;55.27;96907.78;4987894;28;20289;-28
2023/11/24 01:47:05;;;;;;;2.10;1.77;;;;;;;21.32;55.23;96899.22;4992515;28;20544;-28
2023/11/24 01:49:32;;;;;;;2.10;1.90;;;;;;;21.32;55.23;96895.84;4989913;28;20210;-26
2023/11/24 01:51:58;;;;;;;2.37;1.80;;;;;;;21.32;55.21;96888.16;4979712;28;20747;-26
2023/11/24 01:54:26;;;;;;;4.00;2.17;;;;;;;21.30;55.21;96885.56;4987873;28;20612;-27
2023/11/24 01:56:53;;;;;;;2.33;1.77;;;;;;;21.31;55.42;96887.28;4983347;28;20212;-26
2023/11/24 01:59:20;;;;;;;2.47;1.83;;;;;;;21.31;55.18;96879.63;4981684;28;20293;-30
2023/11/24 02:01:46;;;;;;;2.73;2.03;;;;;;;21.31;55.21;96879.63;4986371;28;20286;-26
2023/11/24 02:04:13;;;;;;;2.53;2.00;;;;;;;21.32;55.36;96886.44;4992385;28;20737;-26
2023/11/24 02:06:39;;;;;;;1.93;1.60;;;;;;;21.32;55.44;96883.06;4992256;28;20210;-30
2023/11/24 02:09:06;;;;;;;1.90;1.70;;;;;;;21.32;55.43;96880.50;4999876;28;20202;-27
2023/11/24 02:11:33;;;;;;;1.87;1.60;;;;;;;21.27;55.35;96857.41;4989756;28;20596;-26
2023/11/24 02:13:59;;;;;;;2.30;2.10;;;;;;;21.32;55.49;96865.16;4988589;28;20652;-30
2023/11/24 02:16:26;;;;;;;2.17;1.60;;;;;;;21.31;55.17;96854.06;4981991;28;20206;-31
2023/11/24 02:18:52;;;;;;;3.33;1.83;;;;;;;21.31;55.50;96861.75;4984725;28;20298;-26
2023/11/24 02:21:19;;;;;;;2.23;1.80;;;;;;;21.31;55.42;96848.09;4985355;28;20258;-27
2023/11/24 02:23:46;;;;;;;2.40;1.83;;;;;;;21.32;55.27;96852.38;4994173;28;20227;-28
2023/11/24 02:26:14;;;;;;;1.67;1.53;;;;;;;21.31;55.41;96848.09;4984747;28;20675;-26
2023/11/24 02:28:41;;;;;;;2.27;1.70;;;;;;;21.32;55.44;96850.66;4991966;28;20199;-27
2023/11/24 02:31:07;;;;;;;2.13;1.90;;;;;;;21.23;55.20;96832.59;4988250;28;20648;-27
2023/11/24 02:33:34;;;;;;;2.37;1.90;;;;;;;21.31;55.54;96848.97;4980296;28;20729;-29
2023/11/24 02:36:05;;;;;;;2.67;2.30;;;;;;;21.33;55.22;96836.22;4994499;28;20277;-31
2023/11/24 02:38:32;;;;;;;2.30;1.73;;;;;;;21.31;55.21;96841.28;4986585;28;20655;-26
2023/11/24 02:41:00;;;;;;;2.93;1.93;;;;;;;21.32;55.15;96829.38;4994338;28;20215;-26
2023/11/24 02:43:27;;;;;;;4.77;1.83;;;;;;;21.31;55.33;96818.28;4982396;28;20222;-26
2023/11/24 02:45:54;;;;;;;2.00;1.67;;;;;;;21.33;55.18;96820.88;4989098;28;20550;-27
2023/11/24 02:48:20;;;;;;;2.30;1.90;;;;;;;21.32;55.35;96814.03;4984940;28;20250;-26
2023/11/24 02:50:48;;;;;;;1.70;1.60;;;;;;;21.31;55.27;96813.19;4991346;28;20237;-28
2023/11/24 02:53:14;;;;;;;1.93;1.73;;;;;;;21.32;55.43;96819.16;4990200;28;20199;-26
2023/11/24 02:55:41;;;;;;;1.97;1.77;;;;;;;21.31;55.49;96817.41;4991567;28;20227;-29
2023/11/24 02:58:08;;;;;;;2.00;1.80;;;;;;;21.30;55.20;96816.56;4980483;28;20227;-29
2023/11/24 03:00:36;;;;;;;2.10;1.50;;;;;;;21.30;55.33;96820.81;4989661;28;20238;-26
2023/11/24 03:03:03;;;;;;;2.30;1.67;;;;;;;21.29;55.41;96812.28;4979296;28;20210;-34
2023/11/24 03:05:30;;;;;;;2.33;1.83;;;;;;;21.29;55.28;96830.16;4978897;28;20199;-28
2023/11/24 03:07:57;;;;;;;2.70;2.00;;;;;;;21.30;55.58;96826.81;4979044;28;20208;-26
2023/11/24 03:10:23;;;;;;;1.83;1.60;;;;;;;21.30;55.53;96821.69;4986836;28;20246;-32
2023/11/24 03:12:50;;;;;;;2.00;1.80;;;;;;;21.31;55.45;96815.72;4989529;28;20281;-26
2023/11/24 03:15:17;;;;;;;1.90;1.70;;;;;;;21.31;55.32;96804.63;4990083;28;20235;-27
2023/11/24 03:17:43;;;;;;;1.90;1.70;;;;;;;21.31;55.50;96799.53;4981646;28;20208;-26
2023/11/24 03:20:12;;;;;;;1.83;1.60;;;;;;;21.30;55.61;96814.03;4984513;28;20210;-26
2023/11/24 03:22:39;;;;;;;2.57;1.83;;;;;;;21.31;55.32;96815.72;4986326;28;20651;-27
2023/11/24 03:25:08;;;;;;;1.70;1.60;;;;;;;21.31;55.27;96813.19;4990183;28;20215;-27
2023/11/24 03:27:36;;;;;;;1.53;1.43;;;;;;;21.32;55.51;96803.81;4992854;28;20200;-27
2023/11/24 03:30:03;;;;;;;1.67;1.57;;;;;;;21.32;55.57;96806.38;4980190;28;20439;-26
2023/11/24 03:32:30;;;;;;;2.47;1.93;;;;;;;21.32;55.42;96797.00;4981989;28;20287;-28
2023/11/24 03:34:56;;;;;;;1.70;1.60;;;;;;;21.31;55.55;96787.63;4988675;28;20896;-26
2023/11/24 03:37:23;;;;;;;1.70;1.60;;;;;;;21.32;55.50;96786.78;5007973;28;20301;-26
2023/11/24 03:39:49;;;;;;;1.80;1.60;;;;;;;21.32;55.55;96780.81;4985046;28;20239;-30
2023/11/24 03:42:16;;;;;;;1.77;1.50;;;;;;;21.32;55.62;96771.44;4983564;28;20237;-26
2023/11/24 03:44:43;;;;;;;1.80;1.70;;;;;;;21.32;55.49;96768.03;4987163;28;20279;-26
2023/11/24 03:47:09;;;;;;;2.20;1.73;;;;;;;21.32;55.20;96774.00;4984189;28;20239;-28
2023/11/24 03:49:36;;;;;;;1.30;1.20;;;;;;;21.32;55.52;96771.44;4989082;28;20239;-27
2023/11/24 03:52:04;;;;;;;2.00;1.73;;;;;;;21.24;55.37;96759.38;4986989;28;20199;-26
2023/11/24 03:54:30;;;;;;;1.70;1.60;;;;;;;21.32;55.34;96768.88;4981739;28;20218;-26
2023/11/24 03:56:57;;;;;;;1.53;1.43;;;;;;;21.26;55.31;96761.09;4984916;28;20632;-28
2023/11/24 03:59:24;;;;;;;2.20;1.60;;;;;;;21.32;55.42;96768.88;4982953;28;20289;-26
2023/11/24 04:01:50;;;;;;;1.80;1.67;;;;;;;21.31;55.35;96769.72;4985229;28;20207;-30
2023/11/24 04:04:17;;;;;;;2.00;1.73;;;;;;;21.31;55.47;96771.41;4987315;28;20263;-30
2023/11/24 04:06:44;;;;;;;1.87;1.57;;;;;;;21.31;55.60;96776.53;4991432;28;20207;-35
2023/11/24 04:09:11;;;;;;;1.90;1.77;;;;;;;21.31;55.44;96759.50;4980401;28;20203;-26
2023/11/24 04:11:39;;;;;;;1.63;1.53;;;;;;;21.31;55.42;96766.31;4983742;28;20343;-30
2023/11/24 04:14:05;;;;;;;1.70;1.60;;;;;;;21.31;55.60;96749.28;4988311;28;20222;-34
2023/11/24 04:16:32;;;;;;;1.70;1.60;;;;;;;21.31;55.45;96746.72;4980481;28;20223;-26
2023/11/24 04:18:59;;;;;;;2.00;1.80;;;;;;;21.32;55.45;96752.72;4978407;28;20285;-27
2023/11/24 04:21:25;;;;;;;1.80;1.50;;;;;;;21.32;55.44;96745.88;4980056;28;20207;-31
2023/11/24 04:23:52;;;;;;;1.70;1.60;;;;;;;21.32;55.29;96733.09;4980190;28;20223;-26
2023/11/24 04:26:18;;;;;;;2.07;1.67;;;;;;;21.28;55.49;96723.66;4987233;28;20628;-26
2023/11/24 04:28:45;;;;;;;1.50;1.40;;;;;;;21.32;55.37;96724.59;4986087;28;20231;-28
2023/11/24 04:31:11;;;;;;;2.10;1.60;;;;;;;21.32;55.46;96724.59;4985101;28;20234;-27
2023/11/24 04:33:38;;;;;;;1.50;1.40;;;;;;;21.31;55.37;96710.94;4986254;28;20265;-30
2023/11/24 04:36:06;;;;;;;2.17;1.60;;;;;;;21.31;55.51;96695.63;4984264;28;20223;-26
2023/11/24 04:38:32;;;;;;;1.50;1.40;;;;;;;21.34;55.24;96699.91;4989057;28;20292;-26
2023/11/24 04:41:00;;;;;;;1.47;1.37;;;;;;;21.34;55.52;96694.78;4982407;28;20253;-26
2023/11/24 04:43:27;;;;;;;3.00;1.50;;;;;;;21.33;55.48;96699.06;4987029;28;20219;-30
2023/11/24 04:45:54;;;;;;;3.17;1.37;;;;;;;21.34;55.55;96685.44;5008231;28;20210;-30
2023/11/24 04:48:21;;;;;;;1.93;1.50;;;;;;;21.28;55.35;96685.34;4996300;28;20611;-26
2023/11/24 04:50:47;;;;;;;2.00;1.70;;;;;;;21.35;55.34;96692.25;4992933;28;20577;-28
2023/11/24 04:53:15;;;;;;;1.97;1.37;;;;;;;21.36;55.42;96701.69;4990041;28;20206;-26
2023/11/24 04:55:42;;;;;;;1.40;1.30;;;;;;;21.35;55.65;96701.66;4988307;28;20318;-26
2023/11/24 04:58:09;;;;;;;2.87;1.70;;;;;;;21.35;55.49;96699.09;4981157;28;20235;-27
2023/11/24 05:00:36;;;;;;;3.20;1.70;;;;;;;21.36;55.46;96716.13;4991637;28;20249;-27
2023/11/24 05:03:02;;;;;;;1.83;1.50;;;;;;;21.35;55.68;96699.09;4989027;28;20215;-28
2023/11/24 05:05:29;;;;;;;3.23;1.97;;;;;;;21.27;55.58;96678.53;4982397;28;20588;-26
2023/11/24 05:07:55;;;;;;;3.00;1.90;;;;;;;21.35;55.48;96714.44;4989397;28;20203;-28
2023/11/24 05:10:22;;;;;;;3.83;1.97;;;;;;;21.35;55.65;96707.59;4981749;28;20207;-26
2023/11/24 05:12:49;;;;;;;3.57;1.83;;;;;;;21.35;55.72;96722.09;4992854;28;20230;-28
2023/11/24 05:15:16;;;;;;;4.33;1.70;;;;;;;21.35;55.67;96722.09;4999511;28;20220;-26
2023/11/24 05:17:43;;;;;;;4.50;1.80;;;;;;;21.34;55.52;96731.44;4985640;28;20210;-27
2023/11/24 05:20:12;;;;;;;5.17;1.80;;;;;;;21.36;55.63;96751.91;4981517;28;20207;-31
2023/11/24 05:22:39;;;;;;;5.33;2.23;;;;;;;21.35;55.89;96752.75;4988818;28;20654;-26
2023/11/24 05:25:07;;;;;;;2.70;1.73;;;;;;;21.35;55.80;96773.22;4989123;28;20219;-29
2023/11/24 05:27:33;;;;;;;4.03;1.70;;;;;;;21.34;55.73;96767.22;4995895;28;20229;-28
2023/11/24 05:30:00;;;;;;;4.00;1.67;;;;;;;21.35;55.67;96771.50;4981148;28;20262;-27
2023/11/24 05:32:27;;;;;;;3.50;1.80;;;;;;;21.35;55.67;96768.94;4988608;28;20199;-26
2023/11/24 05:34:54;;;;;;;2.33;1.70;;;;;;;21.35;55.79;96756.16;4988361;28;20317;-26
2023/11/24 05:37:20;;;;;;;2.60;1.57;;;;;;;21.35;55.97;96756.16;4982758;28;20204;-28
2023/11/24 05:39:47;;;;;;;5.17;1.70;;;;;;;21.34;55.74;96759.56;4978949;28;20640;-30
2023/11/24 05:42:15;;;;;;;3.03;1.73;;;;;;;21.36;55.97;96760.47;4984704;28;20263;-26
2023/11/24 05:44:41;;;;;;;3.10;1.60;;;;;;;21.35;56.01;96761.28;4985603;28;20228;-26
2023/11/24 05:47:08;;;;;;;3.77;1.60;;;;;;;21.35;55.88;96761.28;4982842;28;20254;-27
2023/11/24 05:49:34;;;;;;;3.83;1.80;;;;;;;21.34;55.80;96754.44;4985334;28;20215;-28
2023/11/24 05:52:01;;;;;;;2.50;1.70;;;;;;;21.35;55.77;96760.44;4992965;28;20203;-27
2023/11/24 05:54:28;;;;;;;3.03;1.70;;;;;;;21.35;55.72;96763.81;4985370;28;20218;-26
2023/11/24 05:56:54;;;;;;;3.83;1.70;;;;;;;21.37;56.09;96751.06;4982330;28;20793;-26
2023/11/24 05:59:21;;;;;;;5.07;1.80;;;;;;;21.35;56.10;96753.59;4987106;28;20203;-28
2023/11/24 06:01:48;;;;;;;2.97;1.93;;;;;;;21.33;55.94;96739.97;4984051;28;20204;-27
2023/11/24 06:04:14;;;;;;;4.10;2.07;;;;;;;21.34;56.16;96728.88;4986677;28;20238;-31
2023/11/24 06:06:41;;;;;;;4.67;2.07;;;;;;;21.35;56.68;96730.59;4987676;28;20230;-26
2023/11/24 06:09:08;;;;;;;5.97;1.70;;;;;;;21.37;56.45;96726.38;4990938;28;20218;-27
2023/11/24 06:11:34;;;;;;;3.30;1.80;;;;;;;21.38;56.70;96714.47;4990806;28;20207;-26
2023/11/24 06:14:01;;;;;;;6.03;1.83;;;;;;;21.36;56.84;96703.34;4990286;28;20673;-26
2023/11/24 06:16:27;;;;;;;5.50;1.83;;;;;;;21.38;56.47;96692.31;4993842;28;20716;-26
2023/11/24 06:18:54;;;;;;;4.77;2.17;;;;;;;21.36;55.75;96698.25;4994932;28;20262;-27
2023/11/24 06:21:21;;;;;;;3.37;1.50;;;;;;;21.36;54.83;96693.13;4991152;28;20720;-26
2023/11/24 06:23:50;;;;;;;5.63;1.90;;;;;;;21.35;55.29;96691.44;4990185;28;20227;-26
2023/11/24 06:26:18;;;;;;;4.97;1.83;;;;;;;21.33;53.61;96716.97;4985621;28;20680;-26
2023/11/24 06:28:44;;;;;;;9.90;2.30;;;;;;;21.32;52.44;96716.94;4985425;28;20219;-33
2023/11/24 06:31:14;;;;;;;3.63;1.50;;;;;;;21.30;52.39;96708.38;4992386;28;20258;-26
2023/11/24 06:33:41;;;;;;;5.17;1.60;;;;;;;21.29;52.04;96707.50;4980806;28;20223;-29
2023/11/24 06:36:10;;;;;;;3.67;1.73;;;;;;;21.28;51.32;96713.44;4994629;28;20222;-26
2023/11/24 06:38:37;;;;;;;3.30;1.53;;;;;;;21.26;51.30;96712.56;4983274;28;20670;-30
2023/11/24 06:41:03;;;;;;;5.17;1.57;;;;;;;21.27;50.77;96711.75;4982737;28;20257;-27
2023/11/24 06:43:30;;;;;;;3.20;1.70;;;;;;;21.26;50.61;96704.88;4982027;28;20236;-27
2023/11/24 06:45:56;;;;;;;3.80;1.80;;;;;;;21.26;51.14;96707.44;4987716;28;20202;-26
2023/11/24 06:48:23;;;;;;;1.90;1.40;;;;;;;21.27;50.63;96709.19;4985625;28;20199;-32
2023/11/24 06:50:50;;;;;;;2.77;1.40;;;;;;;21.25;50.58;96718.50;4981668;28;20204;-27
2023/11/24 06:53:16;;;;;;;2.10;1.40;;;;;;;21.24;50.38;96732.13;4984418;28;20247;-28
2023/11/24 06:55:43;;;;;;;5.37;1.73;;;;;;;21.23;49.99;96717.59;4989022;28;20249;-26
2023/11/24 06:58:09;;;;;;;4.30;1.60;;;;;;;21.23;50.46;96702.28;4984289;28;20199;-26
2023/11/24 07:00:36;;;;;;;2.53;1.30;;;;;;;21.23;50.29;96702.28;4992236;28;20199;-28
2023/11/24 07:03:03;;;;;;;3.27;1.30;;;;;;;21.24;50.37;96698.03;4992985;28;20209;-30
2023/11/24 07:05:29;;;;;;;1.57;1.30;;;;;;;21.22;50.21;96698.00;4983547;28;20245;-28
2023/11/24 07:07:56;;;;;;;3.93;1.70;;;;;;;21.23;49.34;96697.16;4982905;28;20232;-26
2023/11/24 07:10:22;;;;;;;5.17;1.60;;;;;;;21.23;49.10;96704.00;4992781;28;20258;-27
2023/11/24 07:12:50;;;;;;;2.63;1.60;;;;;;;21.22;49.54;96702.25;4990703;28;20226;-29
2023/11/24 07:15:17;;;;;;;2.53;1.77;;;;;;;21.22;48.00;96682.69;4992663;28;20223;-26
2023/11/24 07:17:44;;;;;;;4.60;1.63;;;;;;;21.21;47.82;96686.09;4983079;28;20613;-26
2023/11/24 07:20:11;;;;;;;2.63;1.57;;;;;;;21.21;48.34;96687.75;4985623;28;20207;-32
2023/11/24 07:22:39;;;;;;;2.07;1.50;;;;;;;21.21;48.63;96673.31;4980849;28;20295;-27
2023/11/24 07:25:06;;;;;;;2.30;1.57;;;;;;;21.21;49.01;96673.31;4980634;28;20309;-26
2023/11/24 07:27:33;;;;;;;3.33;1.63;;;;;;;21.21;49.70;96670.75;4980655;28;20226;-27
2023/11/24 07:30:00;;;;;;;4.27;1.90;;;;;;;21.23;50.54;96675.88;4983301;28;20669;-27
2023/11/24 07:32:28;;;;;;;7.43;2.00;;;;;;;21.23;50.57;96674.16;4979705;28;20211;-28
2023/11/24 07:34:55;;;;;;;5.47;1.83;;;;;;;21.25;51.02;96675.06;4976402;28;20671;-26
2023/11/24 07:37:21;;;;;;;5.33;1.87;;;;;;;21.25;51.36;96687.84;4972224;28;20230;-31
2023/11/24 07:39:48;;;;;;;3.30;1.80;;;;;;;21.25;51.62;96680.19;4986085;28;20212;-27
2023/11/24 07:42:15;;;;;;;4.77;1.90;;;;;;;21.23;52.11;96666.50;4983208;28;20749;-27
2023/11/24 07:44:42;;;;;;;3.73;1.90;;;;;;;21.26;52.34;96669.09;4986838;28;20238;-27
2023/11/24 07:47:10;;;;;;;5.27;1.90;;;;;;;21.27;52.21;96672.53;4977408;28;20542;-30
2023/11/24 07:49:36;;;;;;;4.27;2.20;;;;;;;21.27;52.82;96657.19;4975748;28;20211;-31
2023/11/24 07:52:04;;;;;;;2.97;1.90;;;;;;;21.27;52.89;96657.19;4975188;28;20297;-27
2023/11/24 07:54:31;;;;;;;5.27;1.93;;;;;;;21.27;52.84;96675.97;4978594;28;20227;-26
2023/11/24 07:56:58;;;;;;;3.37;1.90;;;;;;;21.28;53.26;96687.03;4981695;28;20223;-31
2023/11/24 07:59:24;;;;;;;3.00;1.80;;;;;;;21.29;52.67;96681.09;4979777;28;20206;-27
2023/11/24 08:01:51;;;;;;;4.17;2.20;;;;;;;21.22;53.13;96672.47;4985491;28;20662;-28
2023/11/24 08:04:18;;;;;;;4.87;2.03;;;;;;;21.32;53.18;96684.53;4979208;28;20233;-30
2023/11/24 08:06:45;;;;;;;4.90;2.00;;;;;;;21.31;53.20;96693.06;4985850;28;20698;-30
2023/11/24 08:09:12;;;;;;;9.40;2.90;;;;;;;21.32;53.49;96666.66;4987463;28;20199;-26
2023/11/24 08:11:39;;;;;;;9.60;2.53;;;;;;;21.33;53.26;96693.09;4981989;28;20230;-28
2023/11/24 08:14:05;;;;;;;7.30;2.43;;;;;;;21.33;53.64;96699.06;4984297;28;20241;-32
2023/11/24 08:16:32;;;;;;;6.87;2.13;;;;;;;21.33;52.63;96698.19;4980922;28;20329;-28
2023/11/24 08:18:58;;;;;;;8.07;2.43;;;;;;;21.31;48.96;96684.53;4981536;28;20294;-28
2023/11/24 08:21:25;;;;;;;7.37;1.93;;;;;;;21.28;46.38;96671.69;4979051;28;20682;-28
2023/11/24 08:23:52;;;;;;;4.43;2.00;;;;;;;21.27;47.40;96665.75;4984140;28;20646;-29
2023/11/24 08:26:18;;;;;;;7.53;2.20;;;;;;;21.26;48.26;96671.66;4978286;28;20616;-26
2023/11/24 08:28:45;;;;;;;7.20;2.30;;;;;;;21.26;48.64;96679.34;4988020;28;20299;-37
2023/11/24 08:31:16;;;;;;;5.67;2.10;;;;;;;21.24;48.38;96675.03;4987226;28;20924;-31
2023/11/24 08:33:43;;;;;;;5.87;1.93;;;;;;;21.20;49.20;96673.28;4989153;28;20586;-28
2023/11/24 08:36:11;;;;;;;5.00;2.03;;;;;;;21.24;49.30;96670.81;4989830;28;20226;-29
2023/11/24 08:38:37;;;;;;;6.70;2.00;;;;;;;21.26;49.58;96664.00;4986890;28;20741;-29
2023/11/24 08:41:13;;;;;;;6.87;2.03;;;;;;;21.26;50.01;96670.81;4981969;28;20303;-27
2023/11/24 08:44:00;;;;;;;4.80;1.87;;;;;;;21.27;50.35;96645.28;4986548;28;20223;-29
2023/11/24 08:46:26;;;;;;;4.37;2.10;;;;;;;21.27;50.70;96624.84;4987924;28;20191;-28
2023/11/24 08:48:54;;;;;;;3.67;1.90;;;;;;;21.28;50.68;96621.44;4981202;28;20251;-31
2023/11/24 08:51:21;;;;;;;5.67;2.07;;;;;;;21.28;51.48;96610.34;4985045;28;20286;-27
2023/11/24 08:53:48;;;;;;;10.00;2.33;;;;;;;21.30;51.70;96621.47;4987828;28;20767;-28
2023/11/24 08:56:14;;;;;;;7.50;2.40;;;;;;;21.30;52.08;96618.91;4985645;28;20226;-31
2023/11/24 08:58:41;;;;;;;7.40;2.47;;;;;;;21.29;52.05;96620.59;4984543;28;20257;-30
2023/11/24 09:01:07;;;;;;;3.83;1.93;;;;;;;21.30;52.44;96622.34;4985753;28;20210;-28
2023/11/24 09:03:34;;;;;;;3.77;2.13;;;;;;;21.30;52.05;96612.13;4987861;28;20242;-26
2023/11/24 09:06:02;;;;;;;4.80;1.93;;;;;;;21.30;52.35;96612.13;4978605;28;20682;-28
2023/11/24 09:08:29;;;;;;;5.87;2.30;;;;;;;21.29;52.14;96614.66;4988309;28;20203;-32
2023/11/24 09:10:55;;;;;;;13.67;2.53;;;;;;;21.06;52.49;96570.84;4982377;28;20503;-28
2023/11/24 09:13:22;;;;;;;8.60;2.33;;;;;;;21.30;52.72;96613.81;4977935;28;20310;-31
2023/11/24 09:15:49;;;;;;;6.53;2.10;;;;;;;21.31;52.91;96603.59;4982585;28;20207;-29
2023/11/24 09:18:16;;;;;;;4.50;2.20;;;;;;;21.34;53.33;96598.53;4981783;28;20232;-29
2023/11/24 09:20:45;;;;;;;4.13;2.00;;;;;;;21.36;53.34;96598.56;4981182;28;20701;-27
2023/11/24 09:23:12;;;;;;;8.03;2.50;;;;;;;21.37;53.94;96602.84;4984559;28;20285;-26
2023/11/24 09:25:40;;;;;;;5.30;2.70;;;;;;;21.39;53.89;96607.16;4970949;28;20215;-28
2023/11/24 09:28:06;;;;;;;5.13;2.03;;;;;;;21.39;53.73;96581.59;4977411;28;20203;-26
2023/11/24 09:30:33;;;;;;;6.60;2.77;;;;;;;21.38;53.77;96596.91;4991341;28;20203;-26
2023/11/24 09:33:00;;;;;;;4.77;2.43;;;;;;;21.40;53.74;96587.53;4981338;28;20700;-30
2023/11/24 09:35:26;;;;;;;5.03;2.30;;;;;;;21.38;53.79;96574.75;4984145;28;20242;-30
2023/11/24 09:37:54;;;;;;;5.83;2.50;;;;;;;21.38;53.83;96567.06;4991202;28;20233;-29
2023/11/24 09:40:23;;;;;;;4.93;2.30;;;;;;;21.38;53.94;96558.56;4991362;28;20210;-29
2023/11/24 09:42:51;;;;;;;5.83;2.43;;;;;;;21.36;53.96;96552.56;4983967;28;20206;-29
2023/11/24 09:45:22;;;;;;;5.80;2.47;;;;;;;21.37;54.03;96560.25;4989204;28;20222;-29
2023/11/24 09:47:49;;;;;;;4.57;2.20;;;;;;;21.37;54.18;96561.94;4984732;28;20231;-32
2023/11/24 09:50:24;;;;;;;5.20;2.60;;;;;;;21.40;53.94;96569.66;4986013;28;20229;-30
2023/11/24 09:52:56;;;;;;;5.47;2.27;;;;;;;21.40;53.83;96551.75;4978764;28;20748;-32
2023/11/24 09:55:31;;;;;;;4.10;2.00;;;;;;;21.40;54.05;96544.09;4988362;28;20230;-32
2023/11/24 09:57:58;;;;;;;8.07;2.30;;;;;;;21.40;53.29;96527.06;4984007;28;20333;-28
2023/11/24 10:00:25;;;;;;;9.73;2.73;;;;;;;21.41;53.72;96523.66;4987942;28;20648;-28
2023/11/24 10:02:53;;;;;;;7.33;2.40;;;;;;;21.40;53.72;96526.19;4981889;28;20204;-30
2023/11/24 10:05:20;;;;;;;7.43;2.27;;;;;;;21.40;53.63;96528.75;4984919;28;20241;-38
2023/11/24 10:07:50;;;;;;;3.90;2.33;;;;;;;21.38;53.78;96523.63;4988214;28;20192;-38
2023/11/24 10:10:24;;;;;;;5.53;2.37;;;;;;;21.38;53.96;96518.50;4989000;28;20204;-29
2023/11/24 10:12:53;;;;;;;5.13;2.60;;;;;;;21.37;53.98;96514.25;4982376;28;20306;-29
2023/11/24 10:15:20;;;;;;;4.87;2.33;;;;;;;21.37;54.26;96510.81;4986371;28;20729;-30
2023/11/24 10:17:48;;;;;;;3.13;2.10;;;;;;;21.37;53.98;96498.91;4985924;28;20305;-26
2023/11/24 10:20:18;;;;;;;4.40;2.43;;;;;;;21.38;54.04;96497.22;4989158;28;20203;-28
2023/11/24 10:22:49;;;;;;;6.17;2.23;;;;;;;21.38;54.25;96492.13;4988353;28;20207;-27
2023/11/24 10:25:20;;;;;;;4.40;2.33;;;;;;;21.39;54.07;96492.13;4990286;28;20655;-31
2023/11/24 10:27:47;;;;;;;7.30;2.33;;;;;;;21.31;54.05;96465.63;4988322;28;20687;-27
2023/11/24 10:30:14;;;;;;;4.73;1.73;;;;;;;21.36;54.25;96456.31;4989384;28;20658;-32
2023/11/24 10:32:43;;;;;;;5.60;2.37;;;;;;;21.36;54.52;96446.09;4981955;28;22204;-30
2023/11/24 10:35:12;;;;;;;4.47;2.40;;;;;;;21.37;54.38;96445.25;4980621;28;20223;-26
2023/11/24 10:37:42;;;;;;;4.97;2.40;;;;;;;21.37;54.47;96429.91;4982753;28;20698;-26
2023/11/24 10:40:11;;;;;;;3.87;2.00;;;;;;;21.37;54.51;96432.47;4989980;28;20211;-27
2023/11/24 10:42:38;;;;;;;5.97;2.47;;;;;;;21.37;53.85;96411.16;4990427;28;20207;-26
2023/11/24 10:45:06;;;;;;;5.37;2.70;;;;;;;21.37;53.08;96421.38;4994378;28;20223;-29
2023/11/24 10:47:36;;;;;;;5.87;3.10;;;;;;;21.42;53.99;96419.75;4985436;28;20204;-26
2023/11/24 10:50:07;;;;;;;7.77;3.50;;;;;;;21.43;54.19;96414.66;4987724;28;20234;-26
2023/11/24 10:52:43;;;;;;;5.47;3.33;;;;;;;21.45;54.90;96415.53;4984050;28;20207;-26
2023/11/24 10:55:10;;;;;;;8.83;3.53;;;;;;;21.47;55.78;96413.00;4984184;28;20218;-29
2023/11/24 10:57:37;;;;;;;10.63;3.07;;;;;;;21.48;55.54;96405.34;4968314;28;20219;-26
2023/11/24 11:00:04;;;;;;;5.90;2.83;;;;;;;21.49;54.92;96396.84;4984244;28;20218;-29
2023/11/24 11:02:32;;;;;;;9.97;3.60;;;;;;;21.50;54.92;96397.69;4990777;28;20677;-26
2023/11/24 11:05:18;;;;;;;12.47;4.70;;;;;;;21.51;54.84;96387.50;4992544;28;20249;-29
2023/11/24 11:07:57;;;;;;;10.40;4.97;;;;;;;21.53;54.90;96369.63;4975648;28;20206;-26
2023/11/24 11:10:28;;;;;;;12.80;4.23;;;;;;;21.54;55.12;96384.09;4995785;28;20226;-33
2023/11/24 11:12:55;;;;;;;12.00;4.53;;;;;;;21.55;55.38;96371.34;4985009;28;20576;-26
2023/11/24 11:15:25;;;;;;;9.13;4.13;;;;;;;21.55;54.62;96368.78;4970359;28;20272;-29
2023/11/24 11:18:13;;;;;;;11.03;4.70;;;;;;;21.54;54.49;96367.06;4983789;28;20713;-28
2023/11/24 11:20:41;;;;;;;13.33;4.90;;;;;;;21.56;54.38;96351.75;4989229;28;20207;-31
2023/11/24 11:23:15;;;;;;;9.23;4.67;;;;;;;21.56;54.33;96342.38;4981561;28;20199;-26
2023/11/24 11:25:43;;;;;;;9.33;4.47;;;;;;;21.56;54.45;96347.47;4990266;28;20685;-26
2023/11/24 11:28:25;;;;;;;12.03;5.20;;;;;;;21.57;54.42;96341.53;4990826;28;20199;-28
2023/11/24 11:30:59;;;;;;;10.43;5.40;;;;;;;21.58;54.80;96327.03;4983223;28;20198;-26
2023/11/24 11:33:27;;;;;;;10.93;5.07;;;;;;;21.58;54.53;96327.91;4987333;28;20277;-28
2023/11/24 11:36:09;;;;;;;12.87;5.70;;;;;;;21.59;54.82;96323.66;4990461;28;20630;-28